Time;durP1;ratioP1;P1;durP2;ratioP2;P2;SDS_P1;SDS_P2;PMS_P1;PMS_P2;Temp;Humidity;BMP_temperature;BMP_pressure;BME280_temperature;BME280_humidity;BME280_pressure;Samples;Min_cycle;Max_cycle;Signal;HPM_P1;HPM_P2
2022/01/08 00:01:11;;;;;;;;;0.00;0.00;;;;;5.03;79.87;101265.41;5021310;28;47984;-66
2022/01/08 00:03:38;;;;;;;;;0.00;0.00;;;;;5.06;79.99;101264.31;5016365;28;45410;-66
2022/01/08 00:06:04;;;;;;;;;0.00;0.00;;;;;4.95;79.46;101266.88;5033947;28;45444;-66
2022/01/08 00:08:29;;;;;;;;;0.00;0.00;;;;;4.92;79.42;101273.31;5025768;28;45579;-66
2022/01/08 00:10:55;;;;;;;;;0.00;0.00;;;;;4.89;79.79;101278.03;5034039;28;45317;-66
2022/01/08 00:13:21;;;;;;;;;0.00;0.00;;;;;4.88;79.61;101279.88;5028353;28;45259;-68
2022/01/08 00:15:47;;;;;;;;;0.00;0.00;;;;;4.92;80.03;101277.81;5033118;28;45621;-67
2022/01/08 00:18:12;;;;;;;;;0.00;0.00;;;;;4.90;79.39;101293.22;5030549;28;45579;-67
2022/01/08 00:20:38;;;;;;;;;0.33;0.33;;;;;4.90;79.50;101291.38;5034456;28;46112;-67
2022/01/08 00:23:03;;;;;;;;;0.00;0.00;;;;;4.90;79.37;101295.91;5029306;28;45374;-67
2022/01/08 00:25:29;;;;;;;;;0.33;0.00;;;;;4.81;79.37;101297.38;5035837;28;45263;-67
2022/01/08 00:27:54;;;;;;;;;0.33;0.00;;;;;4.84;79.52;101297.16;5026691;28;45197;-67
2022/01/08 00:30:20;;;;;;;;;0.00;0.00;;;;;4.85;79.35;101293.50;5033391;28;46011;-67
2022/01/08 00:32:45;;;;;;;;;0.00;0.00;;;;;4.86;78.81;101305.16;5028809;28;45507;-67
2022/01/08 00:35:11;;;;;;;;;0.00;0.00;;;;;4.82;79.14;101298.25;5033773;28;45281;-67
2022/01/08 00:37:38;;;;;;;;;0.00;0.00;;;;;4.81;79.74;101305.47;5046565;28;45527;-67
2022/01/08 00:40:06;;;;;;;;;0.00;0.00;;;;;4.78;79.66;101307.47;5033194;28;46150;-67
2022/01/08 00:42:31;;;;;;;;;2.67;1.33;;;;;4.75;79.99;101316.59;5048363;28;46477;-66
2022/01/08 00:44:56;;;;;;;;;3.00;2.00;;;;;4.69;79.49;101322.38;5032458;28;45329;-67
2022/01/08 00:47:22;;;;;;;;;0.00;0.00;;;;;4.74;79.79;101325.66;5035614;28;45326;-67
2022/01/08 00:49:47;;;;;;;;;0.00;0.00;;;;;4.67;80.01;101333.25;5033409;28;45429;-67
2022/01/08 00:52:12;;;;;;;;;0.00;0.00;;;;;4.69;79.64;101336.69;5028199;28;45555;-66
2022/01/08 00:54:38;;;;;;;;;0.00;0.00;;;;;4.70;79.95;101341.13;5022062;28;45331;-66
2022/01/08 00:57:04;;;;;;;;;0.00;0.00;;;;;4.73;79.84;101344.59;5032489;28;45342;-66
2022/01/08 00:59:29;;;;;;;;;0.00;0.00;;;;;4.68;80.15;101347.56;5026188;28;46395;-67
2022/01/08 01:01:55;;;;;;;;;0.00;0.00;;;;;4.67;80.26;101353.91;5017275;28;45346;-66
2022/01/08 01:04:20;;;;;;;;;0.67;0.67;;;;;4.66;80.51;101354.88;5027084;28;45534;-67
2022/01/08 01:06:46;;;;;;;;;0.33;0.33;;;;;4.61;80.96;101360.53;5037410;28;45369;-66
2022/01/08 01:09:11;;;;;;;;;0.67;0.67;;;;;4.60;80.76;101368.72;5027707;28;47397;-66
2022/01/08 01:11:36;;;;;;;;;1.00;1.00;;;;;4.51;81.04;101353.13;5036381;28;45342;-66
2022/01/08 01:14:02;;;;;;;;;2.00;1.00;;;;;4.59;81.84;101361.59;5029506;28;45420;-66
2022/01/08 01:16:28;;;;;;;;;1.00;1.00;;;;;4.61;81.33;101367.72;5038078;28;45569;-66
2022/01/08 01:18:54;;;;;;;;;1.00;1.00;;;;;4.63;81.23;101360.44;5029226;28;46566;-66
2022/01/08 01:21:19;;;;;;;;;2.00;2.00;;;;;4.55;80.83;101354.66;5040111;28;45483;-66
2022/01/08 01:23:46;;;;;;;;;4.00;0.67;;;;;4.55;81.15;101358.22;5031166;28;45473;-66
2022/01/08 01:26:17;;;;;;;;;0.00;0.00;;;;;4.55;81.53;101363.59;5042328;28;45244;-66
2022/01/08 01:28:52;;;;;;;;;0.00;0.00;;;;;4.57;81.61;101359.00;5032037;28;46717;-66
2022/01/08 01:47:10;;;;;;;;;1.67;1.00;;;;;4.50;80.77;101351.41;5038524;28;45452;-66
2022/01/08 01:49:39;;;;;;;;;1.00;1.00;;;;;4.50;81.29;101360.34;5034131;28;46264;-66
2022/01/08 01:52:06;;;;;;;;;2.67;1.00;;;;;4.51;81.40;101359.38;5039035;28;45458;-67
2022/01/08 01:54:33;;;;;;;;;5.00;2.00;;;;;4.53;81.14;101370.91;5035193;28;45427;-67
2022/01/08 01:57:00;;;;;;;;;1.00;1.00;;;;;4.50;81.01;101368.41;5038439;28;45856;-66
2022/01/08 01:59:27;;;;;;;;;2.00;2.00;;;;;4.43;81.14;101372.44;5025180;28;45418;-67
2022/01/08 02:01:52;;;;;;;;;3.33;3.33;;;;;4.45;80.99;101381.28;5023616;28;45302;-66
2022/01/08 02:04:18;;;;;;;;;3.00;1.33;;;;;4.49;81.10;101382.81;5026519;28;45358;-67
2022/01/08 02:06:43;;;;;;;;;1.00;1.00;;;;;4.39;80.46;101357.44;5037134;28;45384;-66
2022/01/08 02:09:09;;;;;;;;;1.00;1.00;;;;;4.46;80.34;101360.59;5026309;28;46275;-67
2022/01/08 02:11:53;;;;;;;;;2.00;2.00;;;;;4.40;80.44;101351.09;5037417;28;45326;-67
2022/01/08 02:14:18;;;;;;;;;3.00;2.67;;;;;4.45;80.34;101358.91;5026275;28;45364;-66
2022/01/08 02:16:44;;;;;;;;;1.00;1.00;;;;;4.39;80.26;101360.13;5037718;28;45582;-69
2022/01/08 02:19:09;;;;;;;;;2.00;2.00;;;;;4.40;80.39;101371.75;5028415;28;47442;-66
2022/01/08 02:21:34;;;;;;;;;1.00;1.00;;;;;4.38;81.02;101371.88;5039276;28;45420;-66
2022/01/08 02:24:00;;;;;;;;;2.00;2.00;;;;;4.40;80.99;101379.81;5029729;28;45542;-66
2022/01/08 02:26:25;;;;;;;;;1.33;1.33;;;;;4.37;80.97;101382.72;5041096;28;45318;-67
2022/01/08 02:28:50;;;;;;;;;2.00;2.00;;;;;4.32;81.32;101382.97;5022749;28;46919;-68
2022/01/08 02:31:23;;;;;;;;;4.33;4.33;;;;;4.30;80.77;101383.09;5041725;28;45398;-67
2022/01/08 02:33:49;;;;;;;;;2.00;2.00;;;;;4.30;80.64;101383.09;5039501;28;45468;-68
2022/01/08 02:36:16;;;;;;;;;3.33;3.33;;;;;4.22;80.60;101374.63;5030249;28;45401;-66
2022/01/08 02:38:41;;;;;;;;;2.00;2.00;;;;;4.20;81.04;101378.34;5024949;28;45393;-66
2022/01/08 02:41:07;;;;;;;;;1.67;1.67;;;;;4.11;81.55;101384.28;5016149;28;45396;-66
2022/01/08 02:43:44;;;;;;;;;2.67;1.67;;;;;4.11;81.64;101387.81;5025118;28;45488;-66
2022/01/08 02:46:09;;;;;;;;;3.33;3.33;;;;;4.13;82.35;101379.69;5020197;28;45474;-66
2022/01/08 02:48:36;;;;;;;;;3.33;3.33;;;;;4.13;82.02;101372.47;5027720;28;46182;-66
2022/01/08 02:51:02;;;;;;;;;2.00;2.00;;;;;4.17;81.78;101371.31;5043648;28;45317;-67
2022/01/08 02:53:27;;;;;;;;;1.00;1.00;;;;;4.08;81.68;101369.22;5040045;28;45380;-66
2022/01/08 02:55:53;;;;;;;;;1.33;1.33;;;;;4.14;82.17;101386.78;5031789;28;45399;-67
2022/01/08 02:58:18;;;;;;;;;0.00;0.00;;;;;4.12;82.01;101388.69;5027883;28;47614;-66
2022/01/08 03:00:43;;;;;;;;;2.00;2.00;;;;;4.17;82.27;101397.34;5024414;28;45245;-66
2022/01/08 03:03:09;;;;;;;;;2.00;2.00;;;;;4.18;82.03;101399.09;5025400;28;46096;-66
2022/01/08 03:05:34;;;;;;;;;4.67;1.33;;;;;4.19;81.11;101390.94;5032267;28;45157;-66
2022/01/08 03:08:00;;;;;;;;;1.00;1.00;;;;;4.18;81.84;101399.94;5028654;28;46573;-66
2022/01/08 03:10:25;;;;;;;;;1.33;1.33;;;;;4.21;82.26;101402.47;5032675;28;45416;-66
2022/01/08 03:12:50;;;;;;;;;4.00;1.00;;;;;4.24;81.85;101390.63;5029293;28;45527;-66
2022/01/08 03:15:21;;;;;;;;;2.00;1.67;;;;;4.21;81.67;101385.47;5034512;28;45339;-66
2022/01/08 03:17:48;;;;;;;;;1.00;1.00;;;;;4.25;81.61;101378.94;5029903;28;46222;-67
2022/01/08 03:20:15;;;;;;;;;4.33;2.00;;;;;4.17;81.68;101359.69;5034281;28;45435;-66
2022/01/08 03:22:44;;;;;;;;;1.00;1.00;;;;;4.23;81.46;101375.50;5030609;28;45514;-66
2022/01/08 03:25:10;;;;;;;;;1.00;1.00;;;;;4.22;81.18;101379.13;5036642;28;45695;-66
2022/01/08 03:27:36;;;;;;;;;2.00;2.00;;;;;4.25;81.75;101371.72;5031750;28;45437;-66
2022/01/08 03:30:04;;;;;;;;;3.33;2.00;;;;;4.24;81.44;101361.06;5037160;28;45461;-66
2022/01/08 03:32:29;;;;;;;;;2.33;1.33;;;;;4.28;80.96;101365.31;5033091;28;45434;-66
2022/01/08 03:34:55;;;;;;;;;2.00;1.00;;;;;4.27;81.04;101367.13;5038582;28;45348;-66
2022/01/08 03:37:20;;;;;;;;;1.00;1.00;;;;;4.25;80.76;101369.03;5033429;28;46310;-66
2022/01/08 03:39:45;;;;;;;;;1.00;1.00;;;;;4.31;80.52;101373.16;5029661;28;45329;-67
2022/01/08 03:42:11;;;;;;;;;0.33;0.33;;;;;4.30;80.37;101372.34;5032552;28;45413;-67
2022/01/08 03:44:36;;;;;;;;;1.00;1.00;;;;;4.29;80.33;101373.28;5031926;28;45485;-66
2022/01/08 03:47:24;;;;;;;;;0.00;0.00;;;;;4.26;79.92;101375.28;5036307;28;45608;-66
2022/01/08 03:49:50;;;;;;;;;0.00;0.00;;;;;4.30;79.35;101384.91;5025509;28;45356;-66
2022/01/08 03:52:16;;;;;;;;;1.00;1.00;;;;;4.35;79.68;101381.94;5035420;28;45541;-66
2022/01/08 03:54:41;;;;;;;;;1.00;1.00;;;;;4.32;79.44;101378.47;5033577;28;45253;-66
2022/01/08 03:57:07;;;;;;;;;0.67;0.67;;;;;4.38;79.16;101373.69;5034848;28;47317;-66
2022/01/08 03:59:32;;;;;;;;;2.00;2.00;;;;;4.39;79.44;101370.88;5021638;28;45434;-66
2022/01/08 04:01:58;;;;;;;;;1.00;1.00;;;;;4.37;79.27;101378.22;5022597;28;45372;-66
2022/01/08 04:04:25;;;;;;;;;1.00;1.00;;;;;4.39;79.40;101370.88;5025439;28;45621;-66
2022/01/08 04:06:50;;;;;;;;;1.00;1.00;;;;;4.38;79.27;101362.94;5034942;28;46527;-66
2022/01/08 04:09:16;;;;;;;;;0.00;0.00;;;;;4.32;79.35;101361.47;5025803;28;45584;-66
2022/01/08 04:11:42;;;;;;;;;2.00;2.00;;;;;4.32;79.73;101377.59;5034816;28;45606;-66
2022/01/08 04:14:08;;;;;;;;;0.00;0.00;;;;;4.31;79.15;101384.78;5027375;28;45400;-66
2022/01/08 04:16:36;;;;;;;;;2.00;0.00;;;;;4.42;78.86;101389.53;5035244;28;48262;-66
2022/01/08 04:19:02;;;;;;;;;1.00;1.00;;;;;4.49;78.93;101382.81;5028375;28;45168;-66
2022/01/08 04:23:58;;;;;;;;;3.67;2.00;;;;;4.55;79.02;101377.06;5027861;28;45420;-66
2022/01/08 04:26:25;;;;;;;;;0.33;0.00;;;;;4.60;79.29;101374.09;5039071;28;45334;-66
2022/01/08 04:28:52;;;;;;;;;1.33;0.33;;;;;4.54;79.07;101369.94;5022007;28;45414;-66
2022/01/08 04:31:18;;;;;;;;;0.67;0.00;;;;;4.59;79.12;101372.38;5040240;28;45400;-66
2022/01/08 04:33:43;;;;;;;;;0.67;0.67;;;;;4.60;79.28;101364.19;5021923;28;45576;-66
2022/01/08 04:36:08;;;;;;;;;1.67;1.67;;;;;4.60;79.16;101377.63;5040960;28;46511;-66
2022/01/08 04:38:34;;;;;;;;;1.33;1.33;;;;;4.52;79.31;101371.03;5023643;28;45243;-65
2022/01/08 04:41:00;;;;;;;;;2.00;1.00;;;;;4.54;79.20;101369.06;5041002;28;45423;-65
2022/01/08 04:43:25;;;;;;;;;1.00;1.00;;;;;4.53;80.13;101362.00;5026744;28;45483;-67
2022/01/08 04:45:51;;;;;;;;;2.00;1.00;;;;;4.52;79.45;101371.88;5056008;28;46054;-66
2022/01/08 04:48:18;;;;;;;;;0.00;0.00;;;;;4.52;79.67;101374.56;5028309;28;45319;-66
2022/01/08 04:50:44;;;;;;;;;4.67;1.33;;;;;4.50;79.83;101365.72;5040621;28;45481;-66
2022/01/08 04:53:10;;;;;;;;;2.00;2.00;;;;;4.49;79.72;101374.75;5025885;28;45428;-66
2022/01/08 04:55:35;;;;;;;;;0.00;0.00;;;;;4.40;79.89;101388.75;5027259;28;46470;-66
2022/01/08 04:58:01;;;;;;;;;1.00;1.00;;;;;4.48;79.84;101399.06;5027759;28;45637;-66
2022/01/08 05:00:26;;;;;;;;;1.00;1.00;;;;;4.47;80.27;101405.38;5023230;28;45710;-66
2022/01/08 05:02:51;;;;;;;;;2.00;1.00;;;;;4.44;80.22;101394.84;5022217;28;45477;-66
2022/01/08 05:05:17;;;;;;;;;1.00;1.00;;;;;4.40;80.26;101404.91;5027281;28;47159;-66
2022/01/08 05:07:43;;;;;;;;;0.33;0.33;;;;;4.43;80.55;101411.94;5029212;28;45392;-66
2022/01/08 05:10:08;;;;;;;;;0.00;0.00;;;;;4.50;80.52;101411.47;5030271;28;45296;-66
2022/01/08 05:12:34;;;;;;;;;6.00;2.00;;;;;4.52;80.33;101404.19;5030648;28;45551;-66
2022/01/08 05:15:01;;;;;;;;;2.00;2.00;;;;;4.59;79.96;101400.16;5031101;28;46336;-66
2022/01/08 05:17:32;;;;;;;;;3.00;1.00;;;;;4.60;79.72;101403.72;5030892;28;45412;-66
2022/01/08 05:20:00;;;;;;;;;1.00;1.00;;;;;4.73;80.16;101393.03;5023614;28;45183;-66
2022/01/08 05:22:31;;;;;;;;;1.00;1.00;;;;;4.81;80.05;101383.53;5015797;28;45393;-66
2022/01/08 05:24:57;;;;;;;;;1.33;1.00;;;;;4.90;79.71;101382.06;5034560;28;46025;-65
2022/01/08 05:27:23;;;;;;;;;0.67;0.67;;;;;4.99;79.69;101397.63;5031486;28;45382;-65
2022/01/08 05:29:50;;;;;;;;;4.33;0.67;;;;;5.07;79.41;101389.94;5034010;28;45337;-66
2022/01/08 05:32:17;;;;;;;;;2.00;0.33;;;;;5.01;79.30;101390.34;5032821;28;45794;-66
2022/01/08 05:34:47;;;;;;;;;1.00;1.00;;;;;5.06;79.72;101393.59;5028661;28;45411;-66
2022/01/08 05:37:13;;;;;;;;;2.00;2.00;;;;;5.16;79.03;101386.66;5033431;28;45256;-66
2022/01/08 05:39:39;;;;;;;;;5.00;1.33;;;;;5.25;78.80;101361.84;5029814;28;45310;-66
2022/01/08 05:42:05;;;;;;;;;2.67;1.67;;;;;5.37;79.29;101361.03;5033682;28;45579;-66
2022/01/08 05:44:30;;;;;;;;;0.00;0.00;;;;;5.41;78.71;101348.22;5032053;28;46710;-66
2022/01/08 05:46:56;;;;;;;;;1.00;1.00;;;;;5.49;78.34;101356.66;5037023;28;45429;-66
2022/01/08 05:49:21;;;;;;;;;2.67;1.00;;;;;5.54;78.43;101353.69;5029679;28;45393;-66
2022/01/08 05:51:46;;;;;;;;;2.67;0.33;;;;;5.53;78.41;101350.13;5041125;28;45298;-66
2022/01/08 05:54:12;;;;;;;;;2.00;2.00;;;;;5.54;77.84;101345.59;5024845;28;45400;-67
2022/01/08 05:56:37;;;;;;;;;1.00;1.00;;;;;5.60;78.43;101335.25;5035404;28;45303;-66
2022/01/08 05:59:03;;;;;;;;;1.00;1.00;;;;;5.62;78.34;101349.50;5028258;28;45635;-66
2022/01/08 06:01:28;;;;;;;;;1.00;1.00;;;;;5.68;78.04;101353.63;5024059;28;45326;-66
2022/01/08 06:03:54;;;;;;;;;1.00;1.00;;;;;5.71;78.21;101354.25;5028651;28;45626;-69
2022/01/08 06:06:19;;;;;;;;;0.00;0.00;;;;;5.77;77.97;101359.25;5037563;28;45430;-67
2022/01/08 06:08:45;;;;;;;;;2.00;1.67;;;;;5.78;77.93;101368.19;5028729;28;45373;-66
2022/01/08 06:11:10;;;;;;;;;1.00;1.00;;;;;5.79;77.86;101364.53;5039015;28;45318;-66
2022/01/08 06:13:35;;;;;;;;;0.33;0.33;;;;;5.81;77.88;101359.91;5030504;28;46460;-66
2022/01/08 06:16:01;;;;;;;;;1.67;0.33;;;;;5.83;77.69;101368.78;5037364;28;45322;-67
2022/01/08 06:18:26;;;;;;;;;0.33;0.33;;;;;5.88;78.01;101368.50;5032738;28;45723;-67
2022/01/08 06:20:52;;;;;;;;;2.00;0.67;;;;;5.89;78.06;101357.59;5037762;28;45591;-67
2022/01/08 06:23:17;;;;;;;;;5.00;1.00;;;;;5.87;77.58;101346.00;5049771;28;47173;-66
2022/01/08 06:25:43;;;;;;;;;0.67;0.00;;;;;5.82;77.75;101334.69;5039600;28;45308;-67
2022/01/08 06:28:11;;;;;;;;;0.00;0.00;;;;;5.79;77.76;101330.34;5029277;28;45415;-68
2022/01/08 06:30:37;;;;;;;;;0.67;0.67;;;;;5.80;77.92;101323.13;5039347;28;45405;-68
2022/01/08 06:33:02;;;;;;;;;2.33;2.33;;;;;5.79;78.12;101327.66;5031439;28;47597;-66
2022/01/08 06:35:28;;;;;;;;;1.33;1.33;;;;;5.75;78.15;101344.16;5039032;28;45345;-66
2022/01/08 06:37:53;;;;;;;;;1.33;1.33;;;;;5.76;77.78;101352.16;5033631;28;45421;-67
2022/01/08 06:40:18;;;;;;;;;0.67;0.67;;;;;5.76;78.58;101348.59;5037882;28;45575;-66
2022/01/08 06:42:44;;;;;;;;;2.67;2.67;;;;;5.85;78.02;101340.72;5035009;28;47177;-67
2022/01/08 06:45:09;;;;;;;;;1.00;1.00;;;;;5.93;77.79;101336.66;5037483;28;45323;-66
2022/01/08 06:47:35;;;;;;;;;1.67;1.67;;;;;6.04;78.00;101332.28;5048534;28;45511;-66
2022/01/08 06:50:01;;;;;;;;;3.00;1.33;;;;;6.10;77.64;101326.47;5026365;28;45462;-67
2022/01/08 06:52:27;;;;;;;;;2.33;2.33;;;;;6.15;77.64;101324.31;5049181;28;47156;-67
2022/01/08 06:54:53;;;;;;;;;0.67;0.67;;;;;6.17;77.28;101319.69;5026937;28;45256;-67
2022/01/08 06:57:18;;;;;;;;;1.00;1.00;;;;;6.26;77.56;101318.19;5035016;28;45871;-66
2022/01/08 06:59:43;;;;;;;;;5.33;2.67;;;;;6.30;77.39;101318.81;5028881;28;45237;-66
2022/01/08 07:02:09;;;;;;;;;2.00;1.00;;;;;6.33;77.23;101318.59;5025583;28;46689;-66
2022/01/08 07:04:34;;;;;;;;;2.00;2.00;;;;;6.31;77.58;101316.00;5027374;28;45298;-67
2022/01/08 07:06:59;;;;;;;;;1.00;1.00;;;;;6.37;77.04;101314.72;5036718;28;45438;-67
2022/01/08 07:09:25;;;;;;;;;1.33;0.00;;;;;6.41;77.07;101302.75;5028829;28;45240;-67
2022/01/08 07:11:50;;;;;;;;;3.00;2.00;;;;;6.44;76.72;101310.59;5037632;28;45392;-66
2022/01/08 07:14:16;;;;;;;;;2.33;2.00;;;;;6.44;76.53;101308.78;5029578;28;45313;-67
2022/01/08 07:16:41;;;;;;;;;1.00;1.00;;;;;6.46;76.97;101309.53;5038791;28;45603;-67
2022/01/08 07:19:07;;;;;;;;;1.67;1.00;;;;;6.44;76.72;101303.38;5029115;28;45512;-66
2022/01/08 07:21:32;;;;;;;;;5.67;2.00;;;;;6.45;76.91;101304.25;5039249;28;45522;-66
2022/01/08 07:23:57;;;;;;;;;2.00;1.00;;;;;6.46;76.77;101297.88;5030466;28;45460;-66
2022/01/08 07:26:23;;;;;;;;;3.67;2.00;;;;;6.42;77.51;101280.19;5038717;28;45430;-66
2022/01/08 07:28:48;;;;;;;;;2.00;2.00;;;;;6.43;77.06;101280.06;5031873;28;45540;-66
2022/01/08 07:31:14;;;;;;;;;6.00;1.00;;;;;6.44;77.22;101275.53;5039770;28;47134;-66
2022/01/08 07:33:39;;;;;;;;;2.00;2.00;;;;;6.39;77.50;101285.78;5022605;28;45309;-66
2022/01/08 07:36:04;;;;;;;;;1.00;1.00;;;;;6.36;77.47;101280.59;5039987;28;45377;-66
2022/01/08 07:38:30;;;;;;;;;2.00;2.00;;;;;6.28;78.39;101266.81;5026334;28;45466;-67
2022/01/08 07:40:55;;;;;;;;;1.00;1.00;;;;;6.33;78.05;101278.13;5041303;28;45619;-66
2022/01/08 07:43:21;;;;;;;;;3.00;2.33;;;;;6.32;78.07;101279.09;5028745;28;45400;-66
2022/01/08 07:45:47;;;;;;;;;6.00;2.00;;;;;6.32;78.48;101288.06;5040875;28;45294;-66
2022/01/08 07:48:13;;;;;;;;;4.00;3.00;;;;;6.32;79.12;101279.09;5030001;28;45326;-66
2022/01/08 07:50:38;;;;;;;;;3.00;3.00;;;;;6.23;79.52;101259.88;5040684;28;45312;-67
2022/01/08 07:53:04;;;;;;;;;2.00;2.00;;;;;6.32;79.99;101271.88;5039206;28;45447;-66
2022/01/08 07:55:29;;;;;;;;;2.00;2.00;;;;;6.35;80.18;101273.50;5037275;28;45452;-67
2022/01/08 07:57:54;;;;;;;;;7.00;4.00;;;;;6.28;80.39;101259.56;5046512;28;45388;-66
2022/01/08 08:00:20;;;;;;;;;3.33;2.67;;;;;6.35;80.33;101260.00;5024297;28;45396;-66
2022/01/08 08:02:45;;;;;;;;;7.00;7.00;;;;;6.35;80.61;101262.69;5024004;28;45405;-66
2022/01/08 08:05:11;;;;;;;;;4.33;3.33;;;;;6.42;80.47;101259.47;5030228;28;45331;-67
2022/01/08 08:07:37;;;;;;;;;5.00;4.00;;;;;6.47;80.04;101251.88;5047921;28;45528;-66
2022/01/08 08:10:08;;;;;;;;;7.67;4.00;;;;;6.48;80.15;101241.94;5029691;28;47272;-67
2022/01/08 08:12:34;;;;;;;;;8.00;3.00;;;;;6.52;80.39;101257.81;5032160;28;45517;-66
2022/01/08 08:15:00;;;;;;;;;3.00;3.00;;;;;6.57;80.25;101254.78;5033275;28;45243;-66
2022/01/08 08:17:25;;;;;;;;;2.67;1.33;;;;;6.58;80.26;101233.06;5034046;28;45469;-66
2022/01/08 08:19:51;;;;;;;;;6.00;4.33;;;;;6.67;79.95;101231.53;5033824;28;45676;-65
2022/01/08 08:22:16;;;;;;;;;9.33;4.67;;;;;6.67;79.55;101220.75;5034481;28;45424;-66
2022/01/08 08:24:41;;;;;;;;;6.67;4.67;;;;;6.70;79.61;101225.94;5034662;28;45320;-66
2022/01/08 08:27:07;;;;;;;;;2.00;2.00;;;;;6.64;79.33;101207.47;5035352;28;45485;-66
2022/01/08 08:29:32;;;;;;;;;7.33;4.67;;;;;6.74;79.12;101227.41;5035477;28;45927;-66
2022/01/08 08:31:58;;;;;;;;;7.00;5.00;;;;;6.80;78.88;101205.34;5037184;28;45236;-66
2022/01/08 08:34:23;;;;;;;;;6.00;4.33;;;;;6.73;78.93;101193.28;5027990;28;45758;-66
2022/01/08 08:36:49;;;;;;;;;7.00;3.67;;;;;6.78;78.92;101185.72;5038724;28;45457;-67
2022/01/08 08:39:14;;;;;;;;;5.00;5.00;;;;;6.87;79.11;101194.97;5028191;28;45715;-66
2022/01/08 08:41:40;;;;;;;;;7.33;6.33;;;;;6.91;79.07;101191.94;5039560;28;44761;-66
2022/01/08 08:44:05;;;;;;;;;8.67;6.33;;;;;6.92;79.86;101199.06;5029550;28;45366;-66
2022/01/08 08:46:30;;;;;;;;;7.00;4.33;;;;;6.88;80.68;101180.47;5041017;28;45203;-66
2022/01/08 08:48:56;;;;;;;;;3.00;2.67;;;;;6.92;80.56;101177.47;5030013;28;45464;-66
2022/01/08 08:51:21;;;;;;;;;7.00;6.00;;;;;6.91;81.31;101170.31;5042315;28;45315;-66
2022/01/08 08:53:46;;;;;;;;;3.67;3.00;;;;;6.97;81.45;101169.88;5023672;28;45387;-66
2022/01/08 08:56:12;;;;;;;;;7.00;4.00;;;;;6.98;82.37;101160.78;5031875;28;45239;-65
2022/01/08 08:58:37;;;;;;;;;9.67;6.33;;;;;7.02;81.84;101158.69;5026872;28;45358;-66
2022/01/08 09:01:03;;;;;;;;;3.67;1.00;;;;;7.05;81.99;101166.59;5022998;28;45311;-66
2022/01/08 09:03:28;;;;;;;;;7.00;6.33;;;;;6.94;83.77;101159.28;5026225;28;45401;-66
2022/01/08 09:05:53;;;;;;;;;5.00;4.33;;;;;7.01;83.16;101165.94;5031431;28;45511;-66
2022/01/08 09:08:19;;;;;;;;;8.00;7.00;;;;;7.04;83.39;101162.16;5028117;28;45575;-66
2022/01/08 09:10:44;;;;;;;;;5.67;4.00;;;;;7.13;83.59;101153.34;5042887;28;45341;-66
2022/01/08 09:13:09;;;;;;;;;8.00;5.33;;;;;7.16;83.08;101147.69;5030030;28;45330;-66
2022/01/08 09:15:40;;;;;;;;;6.33;6.00;;;;;7.16;83.39;101154.97;5035361;28;45290;-66
2022/01/08 09:18:07;;;;;;;;;7.00;4.67;;;;;7.18;83.77;101144.88;5030872;28;45513;-66
2022/01/08 09:20:33;;;;;;;;;7.33;6.00;;;;;7.22;84.19;101146.41;5039047;28;45311;-68
2022/01/08 09:22:58;;;;;;;;;9.33;6.00;;;;;7.25;84.19;101129.94;5035185;28;45294;-68
2022/01/08 09:25:24;;;;;;;;;7.00;7.00;;;;;7.39;84.11;101125.19;5040616;28;45348;-66
2022/01/08 09:27:50;;;;;;;;;6.00;5.00;;;;;7.42;83.21;101116.84;5035764;28;45716;-67
2022/01/08 09:30:15;;;;;;;;;7.00;7.00;;;;;7.48;83.52;101120.03;5041378;28;45413;-66
2022/01/08 09:32:43;;;;;;;;;6.67;5.00;;;;;7.51;83.23;101117.97;5035043;28;44836;-67
2022/01/08 09:35:10;;;;;;;;;13.67;11.33;;;;;7.53;83.12;101110.59;5036932;28;45381;-66
2022/01/08 09:37:37;;;;;;;;;3.00;3.00;;;;;7.68;82.85;101116.63;5036400;28;46787;-66
2022/01/08 09:40:04;;;;;;;;;9.67;6.00;;;;;7.67;83.01;101113.06;5034960;28;45393;-66
2022/01/08 09:42:30;;;;;;;;;5.00;3.00;;;;;7.73;82.61;101114.44;5038371;28;45426;-66
2022/01/08 09:44:55;;;;;;;;;7.67;4.00;;;;;7.75;83.30;101102.50;5035332;28;45459;-66
2022/01/08 09:47:22;;;;;;;;;0.00;0.00;;;;;7.64;82.74;101104.34;5040506;28;46294;-66
2022/01/08 09:49:48;;;;;;;;;5.33;5.33;;;;;7.73;83.50;101093.69;5036529;28;45247;-66
2022/01/08 09:52:14;;;;;;;;;6.67;5.00;;;;;7.74;82.94;101084.56;5036882;28;45376;-66
2022/01/08 09:54:40;;;;;;;;;3.00;3.00;;;;;7.78;83.25;101066.25;5026580;28;45518;-66
2022/01/08 09:57:05;;;;;;;;;4.00;3.00;;;;;7.74;82.75;101068.31;5037534;28;45246;-67
2022/01/08 09:59:30;;;;;;;;;6.67;6.00;;;;;7.88;82.96;101069.94;5026287;28;45316;-67
2022/01/08 10:01:58;;;;;;;;;4.67;3.67;;;;;7.93;82.90;101056.03;5025947;28;47493;-67
2022/01/08 10:04:26;;;;;;;;;3.00;2.33;;;;;7.92;82.69;101057.03;5029005;28;45245;-67
2022/01/08 10:07:11;;;;;;;;;10.00;6.00;;;;;8.03;82.74;101054.31;5037489;28;46278;-67
2022/01/08 10:09:37;;;;;;;;;7.67;6.67;;;;;8.09;82.43;101040.28;5027837;28;45451;-67
2022/01/08 10:12:03;;;;;;;;;7.67;6.00;;;;;8.15;82.36;101045.19;5038949;28;45289;-68
2022/01/08 10:17:13;;;;;;;;;11.00;6.00;;;;;8.12;82.44;101037.31;5031147;28;45332;-67
2022/01/08 10:17:43;;;;;;;;;6.00;3.67;;;;;8.28;82.05;101035.06;5036086;28;45995;-67
2022/01/08 10:20:08;;;;;;;;;15.00;10.00;;;;;8.27;81.82;101027.94;5024720;28;45668;-67
2022/01/08 10:22:33;;;;;;;;;4.33;4.00;;;;;8.29;82.05;101025.97;5030732;28;45725;-66
2022/01/08 10:25:10;;;;;;;;;6.67;6.67;;;;;8.32;82.60;101019.47;5055560;28;45320;-66
2022/01/08 10:27:36;;;;;;;;;6.00;6.00;;;;;8.31;81.87;101024.03;5033994;28;46271;-66
2022/01/08 10:30:01;;;;;;;;;4.00;4.00;;;;;8.41;81.64;101016.84;5032653;28;45340;-66
2022/01/08 10:32:27;;;;;;;;;2.67;2.67;;;;;8.44;81.84;101019.31;5049827;28;45414;-67
2022/01/08 10:34:52;;;;;;;;;7.67;4.33;;;;;8.47;81.85;101010.94;5033946;28;45409;-66
2022/01/08 10:37:18;;;;;;;;;4.67;4.00;;;;;8.46;82.65;101005.66;5037562;28;45521;-66
2022/01/08 10:39:53;;;;;;;;;8.33;5.00;;;;;8.44;82.70;100997.66;5033854;28;45341;-66
2022/01/08 10:42:19;;;;;;;;;7.00;7.00;;;;;8.41;82.91;100997.91;5053781;28;45338;-66
2022/01/08 10:44:47;;;;;;;;;7.00;4.33;;;;;8.46;82.81;100990.28;5035147;28;45297;-66
2022/01/08 10:47:20;;;;;;;;;8.67;3.67;;;;;8.45;83.18;100983.13;5035910;28;46281;-66
2022/01/08 10:49:56;;;;;;;;;4.00;3.00;;;;;8.40;83.01;100971.81;5024673;28;45433;-66
2022/01/08 10:52:22;;;;;;;;;8.33;6.33;;;;;8.53;83.51;100977.06;5035438;28;45674;-66
2022/01/08 10:54:55;;;;;;;;;7.00;3.67;;;;;8.47;83.08;100975.75;5026834;28;45330;-66
2022/01/08 10:57:30;;;;;;;;;8.67;6.00;;;;;8.50;83.28;100970.06;5034989;28;46268;-66
2022/01/08 10:59:56;;;;;;;;;8.67;6.00;;;;;8.54;83.20;100954.41;5035532;28;45891;-66
2022/01/08 11:02:26;;;;;;;;;7.00;5.67;;;;;8.62;82.76;100945.63;5024373;28;45314;-66
2022/01/08 11:04:53;;;;;;;;;5.67;3.33;;;;;8.64;82.69;100933.66;5022816;28;45394;-65
2022/01/08 11:07:27;;;;;;;;;11.33;8.00;;;;;8.63;83.00;100925.66;5035524;28;45365;-66
2022/01/08 11:10:04;;;;;;;;;9.33;4.00;;;;;8.51;83.16;100931.16;5026746;28;45276;-65
2022/01/08 11:12:37;;;;;;;;;7.67;4.33;;;;;8.51;83.37;100925.75;5034400;28;45324;-65
2022/01/08 11:17:43;;;;;;;;;5.00;3.00;;;;;8.56;84.07;100912.66;5032259;28;45420;-66
2022/01/08 11:20:15;;;;;;;;;8.00;3.00;;;;;8.45;84.45;100896.47;5037387;28;45322;-67
2022/01/08 11:22:43;;;;;;;;;5.00;3.67;;;;;8.49;84.10;100897.94;5032621;28;45437;-66
2022/01/08 11:25:12;;;;;;;;;11.00;7.00;;;;;8.57;83.86;100884.59;5037471;28;45492;-68
2022/01/08 11:27:52;;;;;;;;;7.33;4.00;;;;;8.52;83.28;100876.00;5034180;28;45440;-66
2022/01/08 11:30:21;;;;;;;;;3.00;3.00;;;;;8.55;83.49;100870.31;5039501;28;45467;-67
2022/01/08 11:32:52;;;;;;;;;8.00;6.00;;;;;8.66;82.58;100865.81;5032598;28;45405;-67
2022/01/08 11:35:19;;;;;;;;;7.00;5.67;;;;;8.62;82.64;100858.97;5035479;28;45523;-66
2022/01/08 11:37:49;;;;;;;;;9.00;7.67;;;;;8.61;83.00;100851.84;5031984;28;47244;-67
2022/01/08 11:40:17;;;;;;;;;9.33;8.00;;;;;8.65;83.36;100850.56;5033504;28;45371;-67
2022/01/08 11:42:43;;;;;;;;;6.67;3.00;;;;;8.65;83.18;100837.03;5018167;28;45438;-66
2022/01/08 11:45:13;;;;;;;;;12.33;5.33;;;;;8.61;82.88;100827.47;5036252;28;45516;-65
2022/01/08 11:47:43;;;;;;;;;6.00;4.00;;;;;8.66;82.96;100817.06;5036503;28;45624;-66
2022/01/08 11:50:10;;;;;;;;;5.67;5.67;;;;;8.63;82.19;100811.91;5036315;28;45397;-66
2022/01/08 11:52:36;;;;;;;;;4.00;4.00;;;;;8.53;82.85;100803.75;5033125;28;45372;-65